sensor_id;sensor_type;location;lat;lon;timestamp;pressure;altitude;pressure_sealevel;temperature
71960;BMP280;59832;51.146;14.024;2023-06-26T04:02:31;98344.91;;;16.24
71960;BMP280;59832;51.146;14.024;2023-06-26T04:04:57;98341.53;;;16.38
71960;BMP280;59832;51.146;14.024;2023-06-26T04:07:24;98330.47;;;16.45
71960;BMP280;59832;51.146;14.024;2023-06-26T04:09:51;98332.59;;;16.53
71960;BMP280;59832;51.146;14.024;2023-06-26T04:12:18;98328.53;;;16.59
71960;BMP280;59832;51.146;14.024;2023-06-26T04:14:44;98332.13;;;16.69
71960;BMP280;59832;51.146;14.024;2023-06-26T04:17:11;98329.47;;;16.79
71960;BMP280;59832;51.146;14.024;2023-06-26T04:19:38;98331.22;;;16.93
71960;BMP280;59832;51.146;14.024;2023-06-26T04:22:04;98324.47;;;17.06
71960;BMP280;59832;51.146;14.024;2023-06-26T04:24:31;98326.88;;;17.24
71960;BMP280;59832;51.146;14.024;2023-06-26T04:26:58;98322.28;;;17.38
71960;BMP280;59832;51.146;14.024;2023-06-26T04:29:25;98327.28;;;17.53
71960;BMP280;59832;51.146;14.024;2023-06-26T04:31:53;98319.69;;;17.72
71960;BMP280;59832;51.146;14.024;2023-06-26T04:34:25;98320.56;;;17.92
71960;BMP280;59832;51.146;14.024;2023-06-26T04:36:52;98317.44;;;18.05
71960;BMP280;59832;51.146;14.024;2023-06-26T04:39:19;98314.19;;;18.27
71960;BMP280;59832;51.146;14.024;2023-06-26T04:41:46;98318.75;;;18.43
71960;BMP280;59832;51.146;14.024;2023-06-26T04:44:13;98320.75;;;18.55
71960;BMP280;59832;51.146;14.024;2023-06-26T04:46:39;98314.56;;;18.72
71960;BMP280;59832;51.146;14.024;2023-06-26T04:49:10;98316.06;;;18.93
71960;BMP280;59832;51.146;14.024;2023-06-26T04:51:36;98314.09;;;19.20
71960;BMP280;59832;51.146;14.024;2023-06-26T04:54:07;98315.81;;;19.43
71960;BMP280;59832;51.146;14.024;2023-06-26T04:56:34;98323.06;;;19.68
71960;BMP280;59832;51.146;14.024;2023-06-26T04:59:02;98315.13;;;19.94
71960;BMP280;59832;51.146;14.024;2023-06-26T05:01:29;98308.41;;;20.29
71960;BMP280;59832;51.146;14.024;2023-06-26T05:03:57;98306.00;;;20.22
71960;BMP280;59832;51.146;14.024;2023-06-26T05:06:23;98302.03;;;20.34
71960;BMP280;59832;51.146;14.024;2023-06-26T05:08:50;98301.91;;;20.69
71960;BMP280;59832;51.146;14.024;2023-06-26T05:11:17;98301.00;;;20.89
71960;BMP280;59832;51.146;14.024;2023-06-26T05:13:43;98306.16;;;20.76
71960;BMP280;59832;51.146;14.024;2023-06-26T05:16:10;98296.59;;;21.02
71960;BMP280;59832;51.146;14.024;2023-06-26T05:18:36;98308.13;;;21.13
71960;BMP280;59832;51.146;14.024;2023-06-26T05:21:03;98307.59;;;21.31
71960;BMP280;59832;51.146;14.024;2023-06-26T05:23:31;98303.47;;;21.33
71960;BMP280;59832;51.146;14.024;2023-06-26T05:25:59;98295.91;;;21.52
71960;BMP280;59832;51.146;14.024;2023-06-26T05:28:27;98301.59;;;21.34
71960;BMP280;59832;51.146;14.024;2023-06-26T05:30:54;98295.81;;;21.43
71960;BMP280;59832;51.146;14.024;2023-06-26T05:33:23;98293.41;;;21.86
71960;BMP280;59832;51.146;14.024;2023-06-26T05:35:54;98287.16;;;21.96
71960;BMP280;59832;51.146;14.024;2023-06-26T05:38:21;98286.75;;;21.85
71960;BMP280;59832;51.146;14.024;2023-06-26T05:40:47;98286.50;;;22.05
71960;BMP280;59832;51.146;14.024;2023-06-26T05:43:14;98289.75;;;21.96
71960;BMP280;59832;51.146;14.024;2023-06-26T05:45:41;98280.06;;;22.09
71960;BMP280;59832;51.146;14.024;2023-06-26T05:48:07;98277.25;;;22.16
71960;BMP280;59832;51.146;14.024;2023-06-26T05:50:35;98277.69;;;22.36
71960;BMP280;59832;51.146;14.024;2023-06-26T05:53:02;98276.97;;;22.57
71960;BMP280;59832;51.146;14.024;2023-06-26T05:55:29;98280.59;;;22.38
71960;BMP280;59832;51.146;14.024;2023-06-26T05:57:57;98280.34;;;22.45
71960;BMP280;59832;51.146;14.024;2023-06-26T06:00:26;98278.66;;;22.73
71960;BMP280;59832;51.146;14.024;2023-06-26T06:02:52;98277.16;;;22.63
71960;BMP280;59832;51.146;14.024;2023-06-26T06:05:21;98273.09;;;22.62
71960;BMP280;59832;51.146;14.024;2023-06-26T06:07:48;98281.19;;;22.95
71960;BMP280;59832;51.146;14.024;2023-06-26T06:10:15;98279.19;;;22.90
71960;BMP280;59832;51.146;14.024;2023-06-26T06:12:42;98269.72;;;23.05
71960;BMP280;59832;51.146;14.024;2023-06-26T06:15:08;98269.97;;;23.29
71960;BMP280;59832;51.146;14.024;2023-06-26T06:17:35;98260.78;;;23.64
71960;BMP280;59832;51.146;14.024;2023-06-26T06:20:02;98259.16;;;23.30
71960;BMP280;59832;51.146;14.024;2023-06-26T06:22:29;98260.81;;;23.82
71960;BMP280;59832;51.146;14.024;2023-06-26T06:24:56;98256.91;;;23.68
71960;BMP280;59832;51.146;14.024;2023-06-26T06:27:22;98259.53;;;24.23
71960;BMP280;59832;51.146;14.024;2023-06-26T06:29:49;98250.28;;;23.85
71960;BMP280;59832;51.146;14.024;2023-06-26T06:32:15;98244.75;;;24.29
71960;BMP280;59832;51.146;14.024;2023-06-26T06:34:42;98251.13;;;24.28
71960;BMP280;59832;51.146;14.024;2023-06-26T06:37:09;98253.31;;;24.02
71960;BMP280;59832;51.146;14.024;2023-06-26T06:39:35;98246.75;;;24.43
71960;BMP280;59832;51.146;14.024;2023-06-26T06:42:02;98247.28;;;24.65
71960;BMP280;59832;51.146;14.024;2023-06-26T06:44:28;98241.03;;;25.04
71960;BMP280;59832;51.146;14.024;2023-06-26T06:46:56;98237.41;;;25.35
71960;BMP280;59832;51.146;14.024;2023-06-26T06:49:23;98239.94;;;24.87
71960;BMP280;59832;51.146;14.024;2023-06-26T06:51:49;98246.09;;;25.32
71960;BMP280;59832;51.146;14.024;2023-06-26T06:54:16;98242.72;;;25.16
71960;BMP280;59832;51.146;14.024;2023-06-26T06:56:43;98238.09;;;25.35
71960;BMP280;59832;51.146;14.024;2023-06-26T06:59:09;98240.38;;;25.42
71960;BMP280;59832;51.146;14.024;2023-06-26T07:01:36;98241.00;;;25.75
71960;BMP280;59832;51.146;14.024;2023-06-26T07:04:02;98237.53;;;25.55
71960;BMP280;59832;51.146;14.024;2023-06-26T07:06:30;98230.19;;;25.06
71960;BMP280;59832;51.146;14.024;2023-06-26T07:08:57;98233.59;;;25.36
71960;BMP280;59832;51.146;14.024;2023-06-26T07:11:23;98222.75;;;25.75
71960;BMP280;59832;51.146;14.024;2023-06-26T07:13:50;98229.69;;;26.22
71960;BMP280;59832;51.146;14.024;2023-06-26T07:16:16;98224.03;;;26.09
71960;BMP280;59832;51.146;14.024;2023-06-26T07:18:43;98218.63;;;25.98
71960;BMP280;59832;51.146;14.024;2023-06-26T07:21:10;98220.44;;;25.92
71960;BMP280;59832;51.146;14.024;2023-06-26T07:23:36;98221.88;;;26.08
71960;BMP280;59832;51.146;14.024;2023-06-26T07:26:03;98221.97;;;26.28
71960;BMP280;59832;51.146;14.024;2023-06-26T07:28:29;98227.63;;;25.82
71960;BMP280;59832;51.146;14.024;2023-06-26T07:30:56;98221.22;;;25.98
71960;BMP280;59832;51.146;14.024;2023-06-26T07:33:22;98217.31;;;26.17
71960;BMP280;59832;51.146;14.024;2023-06-26T07:35:49;98216.19;;;25.80
71960;BMP280;59832;51.146;14.024;2023-06-26T07:38:15;98212.19;;;26.58
71960;BMP280;59832;51.146;14.024;2023-06-26T07:40:42;98212.28;;;26.83
71960;BMP280;59832;51.146;14.024;2023-06-26T07:43:08;98212.56;;;27.25
71960;BMP280;59832;51.146;14.024;2023-06-26T07:45:35;98218.50;;;26.86
71960;BMP280;59832;51.146;14.024;2023-06-26T07:48:01;98204.72;;;26.85
71960;BMP280;59832;51.146;14.024;2023-06-26T07:50:28;98210.34;;;27.18
71960;BMP280;59832;51.146;14.024;2023-06-26T07:52:54;98213.22;;;27.41
71960;BMP280;59832;51.146;14.024;2023-06-26T07:55:22;98201.72;;;27.33
71960;BMP280;59832;51.146;14.024;2023-06-26T07:57:48;98207.00;;;27.18
71960;BMP280;59832;51.146;14.024;2023-06-26T08:00:16;98199.00;;;27.73
71960;BMP280;59832;51.146;14.024;2023-06-26T08:02:43;98205.72;;;27.85
71960;BMP280;59832;51.146;14.024;2023-06-26T08:05:09;98201.16;;;28.06
71960;BMP280;59832;51.146;14.024;2023-06-26T08:07:36;98205.19;;;28.01
71960;BMP280;59832;51.146;14.024;2023-06-26T08:10:03;98202.78;;;27.66
71960;BMP280;59832;51.146;14.024;2023-06-26T08:12:30;98200.00;;;27.75
71960;BMP280;59832;51.146;14.024;2023-06-26T08:14:56;98198.50;;;28.37
71960;BMP280;59832;51.146;14.024;2023-06-26T08:17:23;98199.88;;;28.69
71960;BMP280;59832;51.146;14.024;2023-06-26T08:19:49;98201.63;;;28.46
71960;BMP280;59832;51.146;14.024;2023-06-26T08:22:15;98197.59;;;28.45
71960;BMP280;59832;51.146;14.024;2023-06-26T08:24:42;98195.22;;;29.01
71960;BMP280;59832;51.146;14.024;2023-06-26T08:27:08;98190.97;;;29.25
71960;BMP280;59832;51.146;14.024;2023-06-26T08:29:35;98195.28;;;29.34
71960;BMP280;59832;51.146;14.024;2023-06-26T08:32:01;98190.06;;;29.67
71960;BMP280;59832;51.146;14.024;2023-06-26T08:34:29;98180.75;;;29.83
71960;BMP280;59832;51.146;14.024;2023-06-26T08:36:55;98172.63;;;29.92
71960;BMP280;59832;51.146;14.024;2023-06-26T08:39:21;98176.91;;;30.06
71960;BMP280;59832;51.146;14.024;2023-06-26T08:41:48;98172.06;;;30.32
71960;BMP280;59832;51.146;14.024;2023-06-26T08:44:15;98174.69;;;30.26
71960;BMP280;59832;51.146;14.024;2023-06-26T08:46:42;98171.34;;;30.26
71960;BMP280;59832;51.146;14.024;2023-06-26T08:49:21;98167.19;;;29.68
71960;BMP280;59832;51.146;14.024;2023-06-26T08:51:58;98170.25;;;29.94
71960;BMP280;59832;51.146;14.024;2023-06-26T08:54:36;98170.00;;;29.97
71960;BMP280;59832;51.146;14.024;2023-06-26T08:57:06;98165.63;;;30.33
71960;BMP280;59832;51.146;14.024;2023-06-26T08:59:33;98159.72;;;29.99
71960;BMP280;59832;51.146;14.024;2023-06-26T09:02:00;98153.63;;;30.49
71960;BMP280;59832;51.146;14.024;2023-06-26T09:04:27;98164.06;;;30.60
71960;BMP280;59832;51.146;14.024;2023-06-26T09:06:54;98145.44;;;30.63
71960;BMP280;59832;51.146;14.024;2023-06-26T09:09:20;98152.66;;;30.46
71960;BMP280;59832;51.146;14.024;2023-06-26T09:11:47;98142.03;;;30.22
71960;BMP280;59832;51.146;14.024;2023-06-26T09:14:13;98145.75;;;30.49
71960;BMP280;59832;51.146;14.024;2023-06-26T09:16:41;98148.91;;;30.82
71960;BMP280;59832;51.146;14.024;2023-06-26T09:19:10;98142.66;;;30.85
71960;BMP280;59832;51.146;14.024;2023-06-26T09:21:39;98150.13;;;31.17
71960;BMP280;59832;51.146;14.024;2023-06-26T09:24:07;98145.50;;;30.93
71960;BMP280;59832;51.146;14.024;2023-06-26T09:26:38;98150.72;;;30.98
71960;BMP280;59832;51.146;14.024;2023-06-26T09:29:05;98143.38;;;30.45
71960;BMP280;59832;51.146;14.024;2023-06-26T09:31:33;98134.00;;;29.87
71960;BMP280;59832;51.146;14.024;2023-06-26T09:34:07;98141.03;;;30.36
71960;BMP280;59832;51.146;14.024;2023-06-26T09:36:34;98138.09;;;30.56
71960;BMP280;59832;51.146;14.024;2023-06-26T09:39:07;98135.31;;;31.14
71960;BMP280;59832;51.146;14.024;2023-06-26T09:41:41;98140.00;;;31.26
71960;BMP280;59832;51.146;14.024;2023-06-26T09:44:10;98133.69;;;30.75
71960;BMP280;59832;51.146;14.024;2023-06-26T09:46:38;98129.22;;;30.54
71960;BMP280;59832;51.146;14.024;2023-06-26T09:49:10;98135.81;;;30.25
71960;BMP280;59832;51.146;14.024;2023-06-26T09:51:39;98132.09;;;30.56
71960;BMP280;59832;51.146;14.024;2023-06-26T09:54:06;98134.53;;;30.89
71960;BMP280;59832;51.146;14.024;2023-06-26T09:56:33;98130.06;;;31.14
71960;BMP280;59832;51.146;14.024;2023-06-26T09:59:01;98121.97;;;31.41
71960;BMP280;59832;51.146;14.024;2023-06-26T10:01:29;98119.78;;;31.69
71960;BMP280;59832;51.146;14.024;2023-06-26T10:03:56;98118.34;;;31.68
71960;BMP280;59832;51.146;14.024;2023-06-26T10:06:28;98118.59;;;31.89
71960;BMP280;59832;51.146;14.024;2023-06-26T10:08:59;98117.91;;;32.26
71960;BMP280;59832;51.146;14.024;2023-06-26T10:11:33;98111.78;;;31.99
71960;BMP280;59832;51.146;14.024;2023-06-26T10:14:03;98112.16;;;32.09
71960;BMP280;59832;51.146;14.024;2023-06-26T10:16:44;98105.25;;;32.06
71960;BMP280;59832;51.146;14.024;2023-06-26T10:19:11;98103.00;;;31.48
71960;BMP280;59832;51.146;14.024;2023-06-26T10:21:40;98093.84;;;31.79
71960;BMP280;59832;51.146;14.024;2023-06-26T10:24:08;98093.13;;;31.97
71960;BMP280;59832;51.146;14.024;2023-06-26T10:26:39;98100.00;;;32.24
71960;BMP280;59832;51.146;14.024;2023-06-26T10:29:07;98087.13;;;32.39
71960;BMP280;59832;51.146;14.024;2023-06-26T10:31:35;98086.75;;;31.93
71960;BMP280;59832;51.146;14.024;2023-06-26T10:34:02;98087.16;;;31.97
71960;BMP280;59832;51.146;14.024;2023-06-26T10:36:32;98077.22;;;32.45
71960;BMP280;59832;51.146;14.024;2023-06-26T10:39:03;98074.66;;;32.21
71960;BMP280;59832;51.146;14.024;2023-06-26T10:41:37;98077.28;;;32.03
71960;BMP280;59832;51.146;14.024;2023-06-26T10:44:21;98077.78;;;32.01
71960;BMP280;59832;51.146;14.024;2023-06-26T10:46:51;98082.13;;;32.36
71960;BMP280;59832;51.146;14.024;2023-06-26T10:49:20;98076.84;;;32.67
71960;BMP280;59832;51.146;14.024;2023-06-26T10:51:50;98070.84;;;32.35
71960;BMP280;59832;51.146;14.024;2023-06-26T10:54:18;98073.78;;;32.82
71960;BMP280;59832;51.146;14.024;2023-06-26T10:56:50;98075.53;;;33.06
71960;BMP280;59832;51.146;14.024;2023-06-26T10:59:19;98069.66;;;33.39
71960;BMP280;59832;51.146;14.024;2023-06-26T11:02:03;98065.81;;;33.40
71960;BMP280;59832;51.146;14.024;2023-06-26T11:04:37;98058.78;;;33.42
71960;BMP280;59832;51.146;14.024;2023-06-26T11:07:19;98061.94;;;33.02
71960;BMP280;59832;51.146;14.024;2023-06-26T11:10:14;98059.28;;;33.02
71960;BMP280;59832;51.146;14.024;2023-06-26T11:12:43;98069.56;;;33.05
71960;BMP280;59832;51.146;14.024;2023-06-26T11:15:14;98058.38;;;32.86
71960;BMP280;59832;51.146;14.024;2023-06-26T11:17:42;98054.41;;;32.80
71960;BMP280;59832;51.146;14.024;2023-06-26T11:20:11;98057.47;;;32.33
71960;BMP280;59832;51.146;14.024;2023-06-26T11:22:40;98056.25;;;32.21
71960;BMP280;59832;51.146;14.024;2023-06-26T11:25:08;98064.06;;;32.27
71960;BMP280;59832;51.146;14.024;2023-06-26T11:30:05;98047.38;;;32.56
71960;BMP280;59832;51.146;14.024;2023-06-26T11:32:32;98049.47;;;32.57
71960;BMP280;59832;51.146;14.024;2023-06-26T11:34:59;98041.50;;;32.63
71960;BMP280;59832;51.146;14.024;2023-06-26T11:37:26;98043.94;;;32.74
71960;BMP280;59832;51.146;14.024;2023-06-26T11:39:52;98046.94;;;32.97
71960;BMP280;59832;51.146;14.024;2023-06-26T11:42:20;98041.84;;;32.86
71960;BMP280;59832;51.146;14.024;2023-06-26T11:44:47;98039.81;;;32.79
71960;BMP280;59832;51.146;14.024;2023-06-26T11:47:20;98025.94;;;33.04
71960;BMP280;59832;51.146;14.024;2023-06-26T11:49:49;98029.59;;;33.27
71960;BMP280;59832;51.146;14.024;2023-06-26T11:52:15;98028.97;;;33.21
71960;BMP280;59832;51.146;14.024;2023-06-26T11:54:43;98025.66;;;33.21
71960;BMP280;59832;51.146;14.024;2023-06-26T11:57:14;98029.91;;;33.37
71960;BMP280;59832;51.146;14.024;2023-06-26T11:59:41;98029.69;;;32.96
71960;BMP280;59832;51.146;14.024;2023-06-26T12:02:09;98022.28;;;32.49
71960;BMP280;59832;51.146;14.024;2023-06-26T12:04:42;98021.69;;;32.06
71960;BMP280;59832;51.146;14.024;2023-06-26T12:07:10;98015.69;;;32.30
71960;BMP280;59832;51.146;14.024;2023-06-26T12:09:41;98023.72;;;32.50
71960;BMP280;59832;51.146;14.024;2023-06-26T12:12:09;98027.63;;;32.62
71960;BMP280;59832;51.146;14.024;2023-06-26T12:14:37;98027.41;;;32.60
71960;BMP280;59832;51.146;14.024;2023-06-26T12:17:08;98018.50;;;32.63
71960;BMP280;59832;51.146;14.024;2023-06-26T12:19:37;98021.72;;;32.56
71960;BMP280;59832;51.146;14.024;2023-06-26T12:22:08;98022.41;;;32.57
71960;BMP280;59832;51.146;14.024;2023-06-26T12:24:38;98012.63;;;32.70
71960;BMP280;59832;51.146;14.024;2023-06-26T12:27:10;98008.13;;;32.97
71960;BMP280;59832;51.146;14.024;2023-06-26T12:29:39;98006.22;;;32.66
71960;BMP280;59832;51.146;14.024;2023-06-26T12:32:10;98011.31;;;32.64
71960;BMP280;59832;51.146;14.024;2023-06-26T12:34:38;98000.91;;;32.85
71960;BMP280;59832;51.146;14.024;2023-06-26T12:42:18;97990.97;;;32.46
71960;BMP280;59832;51.146;14.024;2023-06-26T12:44:46;97990.22;;;32.19
71960;BMP280;59832;51.146;14.024;2023-06-26T12:47:14;97985.06;;;32.27
71960;BMP280;59832;51.146;14.024;2023-06-26T12:49:43;97984.38;;;32.71
71960;BMP280;59832;51.146;14.024;2023-06-26T12:52:13;97980.41;;;33.04
71960;BMP280;59832;51.146;14.024;2023-06-26T12:54:42;97970.47;;;33.23
71960;BMP280;59832;51.146;14.024;2023-06-26T12:57:10;97973.22;;;32.65
71960;BMP280;59832;51.146;14.024;2023-06-26T12:59:37;97971.09;;;32.90
71960;BMP280;59832;51.146;14.024;2023-06-26T13:02:04;97966.13;;;32.73
71960;BMP280;59832;51.146;14.024;2023-06-26T13:04:31;97970.75;;;32.54
71960;BMP280;59832;51.146;14.024;2023-06-26T13:06:58;97969.69;;;32.89
71960;BMP280;59832;51.146;14.024;2023-06-26T13:09:25;97968.63;;;32.52
71960;BMP280;59832;51.146;14.024;2023-06-26T13:11:52;97957.91;;;32.19
71960;BMP280;59832;51.146;14.024;2023-06-26T13:14:19;97951.44;;;31.64
71960;BMP280;59832;51.146;14.024;2023-06-26T13:16:46;97955.00;;;31.48
71960;BMP280;59832;51.146;14.024;2023-06-26T13:19:13;97949.94;;;31.50
71960;BMP280;59832;51.146;14.024;2023-06-26T13:21:39;97944.06;;;31.44
71960;BMP280;59832;51.146;14.024;2023-06-26T13:24:06;97939.69;;;31.52
71960;BMP280;59832;51.146;14.024;2023-06-26T13:26:32;97939.66;;;31.33
71960;BMP280;59832;51.146;14.024;2023-06-26T13:29:03;97935.66;;;31.27
71960;BMP280;59832;51.146;14.024;2023-06-26T13:31:30;97928.41;;;31.33
71960;BMP280;59832;51.146;14.024;2023-06-26T13:33:58;97937.03;;;31.33
71960;BMP280;59832;51.146;14.024;2023-06-26T13:36:25;97924.84;;;31.30
71960;BMP280;59832;51.146;14.024;2023-06-26T13:38:52;97935.69;;;31.21
71960;BMP280;59832;51.146;14.024;2023-06-26T13:41:23;97928.22;;;31.06
71960;BMP280;59832;51.146;14.024;2023-06-26T13:43:50;97925.47;;;31.18
71960;BMP280;59832;51.146;14.024;2023-06-26T13:46:18;97921.75;;;31.08
71960;BMP280;59832;51.146;14.024;2023-06-26T13:48:45;97921.25;;;31.09
71960;BMP280;59832;51.146;14.024;2023-06-26T13:51:11;97919.06;;;31.13
71960;BMP280;59832;51.146;14.024;2023-06-26T13:53:38;97913.84;;;30.89
71960;BMP280;59832;51.146;14.024;2023-06-26T13:56:05;97913.84;;;30.89
71960;BMP280;59832;51.146;14.024;2023-06-26T13:58:34;97913.28;;;30.96
71960;BMP280;59832;51.146;14.024;2023-06-26T14:01:02;97908.72;;;30.96
71960;BMP280;59832;51.146;14.024;2023-06-26T14:03:29;97902.03;;;30.71
71960;BMP280;59832;51.146;14.024;2023-06-26T14:05:55;97904.63;;;30.77
71960;BMP280;59832;51.146;14.024;2023-06-26T14:08:22;97895.28;;;30.81
71960;BMP280;59832;51.146;14.024;2023-06-26T14:10:49;97897.44;;;30.77
71960;BMP280;59832;51.146;14.024;2023-06-26T14:13:15;97890.13;;;30.70
71960;BMP280;59832;51.146;14.024;2023-06-26T14:15:42;97889.41;;;30.70
71960;BMP280;59832;51.146;14.024;2023-06-26T14:18:09;97885.47;;;30.82
71960;BMP280;59832;51.146;14.024;2023-06-26T14:20:35;97876.47;;;30.96
71960;BMP280;59832;51.146;14.024;2023-06-26T14:23:03;97876.94;;;31.00
71960;BMP280;59832;51.146;14.024;2023-06-26T14:25:29;97869.00;;;31.05
71960;BMP280;59832;51.146;14.024;2023-06-26T14:27:57;97865.06;;;31.12
71960;BMP280;59832;51.146;14.024;2023-06-26T14:30:24;97858.69;;;31.08
71960;BMP280;59832;51.146;14.024;2023-06-26T14:32:50;97847.53;;;31.01
71960;BMP280;59832;51.146;14.024;2023-06-26T14:35:17;97852.56;;;30.99
71960;BMP280;59832;51.146;14.024;2023-06-26T14:37:44;97850.19;;;30.96
71960;BMP280;59832;51.146;14.024;2023-06-26T14:40:11;97843.31;;;30.93
71960;BMP280;59832;51.146;14.024;2023-06-26T14:42:38;97833.09;;;30.89
71960;BMP280;59832;51.146;14.024;2023-06-26T14:45:06;97828.13;;;31.04
71960;BMP280;59832;51.146;14.024;2023-06-26T14:47:33;97818.34;;;31.05
71960;BMP280;59832;51.146;14.024;2023-06-26T14:50:00;97817.41;;;31.02
71960;BMP280;59832;51.146;14.024;2023-06-26T14:52:26;97819.78;;;31.06
71960;BMP280;59832;51.146;14.024;2023-06-26T14:54:53;97812.34;;;31.04
71960;BMP280;59832;51.146;14.024;2023-06-26T14:57:19;97812.50;;;31.12
71960;BMP280;59832;51.146;14.024;2023-06-26T14:59:46;97811.88;;;31.25
71960;BMP280;59832;51.146;14.024;2023-06-26T15:02:12;97814.22;;;31.10
71960;BMP280;59832;51.146;14.024;2023-06-26T15:04:39;97803.03;;;31.03
71960;BMP280;59832;51.146;14.024;2023-06-26T15:07:05;97804.09;;;31.00
71960;BMP280;59832;51.146;14.024;2023-06-26T15:09:32;97804.34;;;30.97
71960;BMP280;59832;51.146;14.024;2023-06-26T15:11:58;97796.94;;;30.95
71960;BMP280;59832;51.146;14.024;2023-06-26T15:14:25;97795.09;;;30.90
71960;BMP280;59832;51.146;14.024;2023-06-26T15:16:52;97787.81;;;31.02
71960;BMP280;59832;51.146;14.024;2023-06-26T15:19:18;97782.84;;;31.17
71960;BMP280;59832;51.146;14.024;2023-06-26T15:21:45;97783.66;;;31.06
71960;BMP280;59832;51.146;14.024;2023-06-26T15:24:11;97794.69;;;31.24
71960;BMP280;59832;51.146;14.024;2023-06-26T15:26:38;97775.56;;;31.23
71960;BMP280;59832;51.146;14.024;2023-06-26T15:29:04;97780.75;;;31.29
71960;BMP280;59832;51.146;14.024;2023-06-26T15:31:31;97773.09;;;31.31
71960;BMP280;59832;51.146;14.024;2023-06-26T15:33:57;97779.75;;;31.13
71960;BMP280;59832;51.146;14.024;2023-06-26T15:36:24;97783.59;;;31.12
71960;BMP280;59832;51.146;14.024;2023-06-26T15:38:50;97775.81;;;31.25
71960;BMP280;59832;51.146;14.024;2023-06-26T15:41:17;97784.66;;;31.22
71960;BMP280;59832;51.146;14.024;2023-06-26T15:43:43;97773.44;;;31.22
71960;BMP280;59832;51.146;14.024;2023-06-26T15:46:11;97782.91;;;31.12
71960;BMP280;59832;51.146;14.024;2023-06-26T15:48:37;97775.09;;;31.25
71960;BMP280;59832;51.146;14.024;2023-06-26T15:51:07;97768.91;;;31.22
71960;BMP280;59832;51.146;14.024;2023-06-26T15:53:34;97760.31;;;31.22
71960;BMP280;59832;51.146;14.024;2023-06-26T15:56:06;97765.03;;;31.42
71960;BMP280;59832;51.146;14.024;2023-06-26T15:58:33;97763.44;;;31.70
71960;BMP280;59832;51.146;14.024;2023-06-26T16:01:02;97754.50;;;31.73
71960;BMP280;59832;51.146;14.024;2023-06-26T16:03:29;97751.47;;;31.69
71960;BMP280;59832;51.146;14.024;2023-06-26T16:05:56;97765.19;;;31.49
71960;BMP280;59832;51.146;14.024;2023-06-26T16:08:22;97754.41;;;31.16
71960;BMP280;59832;51.146;14.024;2023-06-26T16:10:49;97757.25;;;30.99
71960;BMP280;59832;51.146;14.024;2023-06-26T16:13:15;97753.13;;;30.66
71960;BMP280;59832;51.146;14.024;2023-06-26T16:15:45;97747.06;;;30.53
71960;BMP280;59832;51.146;14.024;2023-06-26T16:18:12;97749.91;;;30.31
71960;BMP280;59832;51.146;14.024;2023-06-26T16:20:38;97746.69;;;30.19
71960;BMP280;59832;51.146;14.024;2023-06-26T16:23:05;97752.34;;;29.99
71960;BMP280;59832;51.146;14.024;2023-06-26T16:25:31;97752.66;;;29.90
71960;BMP280;59832;51.146;14.024;2023-06-26T16:27:58;97760.84;;;29.81
71960;BMP280;59832;51.146;14.024;2023-06-26T16:30:24;97759.38;;;29.04
71960;BMP280;59832;51.146;14.024;2023-06-26T16:32:51;97777.84;;;28.43
71960;BMP280;59832;51.146;14.024;2023-06-26T16:35:20;97794.03;;;28.03
71960;BMP280;59832;51.146;14.024;2023-06-26T16:37:46;97810.66;;;27.83
71960;BMP280;59832;51.146;14.024;2023-06-26T16:40:13;97844.22;;;27.37
71960;BMP280;59832;51.146;14.024;2023-06-26T16:42:41;97899.91;;;27.17
71960;BMP280;59832;51.146;14.024;2023-06-26T16:45:08;97918.22;;;26.34
71960;BMP280;59832;51.146;14.024;2023-06-26T16:47:34;97940.22;;;25.67
71960;BMP280;59832;51.146;14.024;2023-06-26T16:50:05;97954.44;;;24.93
71960;BMP280;59832;51.146;14.024;2023-06-26T16:52:32;97990.59;;;24.53
71960;BMP280;59832;51.146;14.024;2023-06-26T16:54:59;97991.81;;;23.96
71960;BMP280;59832;51.146;14.024;2023-06-26T16:57:25;97999.22;;;23.37
71960;BMP280;59832;51.146;14.024;2023-06-26T16:59:51;98022.38;;;22.68
71960;BMP280;59832;51.146;14.024;2023-06-26T17:02:19;98044.38;;;22.45
71960;BMP280;59832;51.146;14.024;2023-06-26T17:04:45;98043.63;;;22.36
71960;BMP280;59832;51.146;14.024;2023-06-26T17:07:12;98028.22;;;22.11
71960;BMP280;59832;51.146;14.024;2023-06-26T17:09:38;98021.78;;;22.06
71960;BMP280;59832;51.146;14.024;2023-06-26T17:12:05;98006.03;;;22.00
71960;BMP280;59832;51.146;14.024;2023-06-26T17:14:32;98000.19;;;21.78
71960;BMP280;59832;51.146;14.024;2023-06-26T17:16:58;98027.94;;;21.78
71960;BMP280;59832;51.146;14.024;2023-06-26T17:19:25;98019.84;;;21.97
71960;BMP280;59832;51.146;14.024;2023-06-26T17:21:51;98013.22;;;21.96
71960;BMP280;59832;51.146;14.024;2023-06-26T17:24:18;98013.19;;;22.27
71960;BMP280;59832;51.146;14.024;2023-06-26T17:26:44;98007.03;;;22.34
71960;BMP280;59832;51.146;14.024;2023-06-26T17:29:11;98004.72;;;22.36
71960;BMP280;59832;51.146;14.024;2023-06-26T17:31:37;98000.50;;;22.20
71960;BMP280;59832;51.146;14.024;2023-06-26T17:34:07;98011.31;;;22.28
71960;BMP280;59832;51.146;14.024;2023-06-26T17:36:33;97999.16;;;22.55
71960;BMP280;59832;51.146;14.024;2023-06-26T17:38:59;97988.66;;;22.77
71960;BMP280;59832;51.146;14.024;2023-06-26T17:41:27;97993.84;;;22.68
71960;BMP280;59832;51.146;14.024;2023-06-26T17:43:53;98011.25;;;22.40
71960;BMP280;59832;51.146;14.024;2023-06-26T17:46:20;98023.47;;;22.40
71960;BMP280;59832;51.146;14.024;2023-06-26T17:48:46;98027.59;;;22.28
71960;BMP280;59832;51.146;14.024;2023-06-26T17:51:13;98037.47;;;22.12
71960;BMP280;59832;51.146;14.024;2023-06-26T17:53:39;98033.34;;;22.23
71960;BMP280;59832;51.146;14.024;2023-06-26T17:56:06;98053.47;;;22.19
71960;BMP280;59832;51.146;14.024;2023-06-26T17:58:32;98055.00;;;21.98
71960;BMP280;59832;51.146;14.024;2023-06-26T18:00:59;98061.00;;;21.95
71960;BMP280;59832;51.146;14.024;2023-06-26T18:03:25;98069.94;;;21.73
71960;BMP280;59832;51.146;14.024;2023-06-26T18:05:52;98083.06;;;21.78
71960;BMP280;59832;51.146;14.024;2023-06-26T18:08:18;98078.53;;;21.70